sensor_id;sensor_type;location;lat;lon;timestamp;temperature;humidity
24632;DHT22;59977;48.782;9.190;2023-07-09T17:56:19;36.60;38.60
24632;DHT22;59977;48.782;9.190;2023-07-09T17:58:47;36.10;37.70
24632;DHT22;59977;48.782;9.190;2023-07-09T18:01:13;35.90;36.70
24632;DHT22;59977;48.782;9.190;2023-07-09T18:03:39;35.90;35.20
24632;DHT22;59977;48.782;9.190;2023-07-09T18:06:04;36.10;35.00
24632;DHT22;59977;48.782;9.190;2023-07-09T18:08:31;36.10;35.20
24632;DHT22;59977;48.782;9.190;2023-07-09T18:10:57;36.20;35.90
24632;DHT22;59977;48.782;9.190;2023-07-09T18:13:25;36.00;37.70
24632;DHT22;59977;48.782;9.190;2023-07-09T18:15:52;35.80;37.10
24632;DHT22;59977;48.782;9.190;2023-07-09T18:18:18;35.60;39.30
24632;DHT22;59977;48.782;9.190;2023-07-09T18:20:44;35.50;38.20
24632;DHT22;59977;48.782;9.190;2023-07-09T18:23:10;35.50;36.60
24632;DHT22;59977;48.782;9.190;2023-07-09T18:25:42;35.50;36.50
24632;DHT22;59977;48.782;9.190;2023-07-09T18:28:19;35.40;37.10
24632;DHT22;59977;48.782;9.190;2023-07-09T18:30:47;35.30;37.00
24632;DHT22;59977;48.782;9.190;2023-07-09T18:33:13;35.30;37.00
24632;DHT22;59977;48.782;9.190;2023-07-09T18:35:39;35.20;37.60
24632;DHT22;59977;48.782;9.190;2023-07-09T18:38:09;35.20;38.30
24632;DHT22;59977;48.782;9.190;2023-07-09T18:40:43;35.00;38.90
24632;DHT22;59977;48.782;9.190;2023-07-09T18:43:19;35.00;39.20
24632;DHT22;59977;48.782;9.190;2023-07-09T18:45:47;34.70;39.70
24632;DHT22;59977;48.782;9.190;2023-07-09T18:48:21;34.60;40.30
24632;DHT22;59977;48.782;9.190;2023-07-09T18:50:51;34.30;41.70
24632;DHT22;59977;48.782;9.190;2023-07-09T18:53:18;34.10;42.10
24632;DHT22;59977;48.782;9.190;2023-07-09T18:55:48;34.00;43.80
24632;DHT22;59977;48.782;9.190;2023-07-09T18:58:22;33.70;44.40
24632;DHT22;59977;48.782;9.190;2023-07-09T19:00:49;33.50;43.20
24632;DHT22;59977;48.782;9.190;2023-07-09T19:03:17;33.30;42.70
24632;DHT22;59977;48.782;9.190;2023-07-09T19:05:44;33.30;43.00
24632;DHT22;59977;48.782;9.190;2023-07-09T19:08:22;33.30;43.40
24632;DHT22;59977;48.782;9.190;2023-07-09T19:10:48;33.20;45.80
24632;DHT22;59977;48.782;9.190;2023-07-09T19:13:15;33.10;44.50
24632;DHT22;59977;48.782;9.190;2023-07-09T19:15:42;33.00;44.40
24632;DHT22;59977;48.782;9.190;2023-07-09T19:20:42;33.00;46.60
24632;DHT22;59977;48.782;9.190;2023-07-09T19:23:13;32.90;46.10
24632;DHT22;59977;48.782;9.190;2023-07-09T19:25:42;32.80;45.70
24632;DHT22;59977;48.782;9.190;2023-07-09T19:28:07;32.80;44.70
24632;DHT22;59977;48.782;9.190;2023-07-09T19:30:33;32.60;46.10
24632;DHT22;59977;48.782;9.190;2023-07-09T19:32:59;32.60;45.90
24632;DHT22;59977;48.782;9.190;2023-07-09T19:35:26;32.50;45.60
24632;DHT22;59977;48.782;9.190;2023-07-09T19:37:52;32.40;46.40
24632;DHT22;59977;48.782;9.190;2023-07-09T19:40:27;32.40;46.50
24632;DHT22;59977;48.782;9.190;2023-07-09T19:42:53;32.30;46.10
24632;DHT22;59977;48.782;9.190;2023-07-09T19:45:23;32.30;46.70
24632;DHT22;59977;48.782;9.190;2023-07-09T19:47:50;32.20;47.00
24632;DHT22;59977;48.782;9.190;2023-07-09T19:52:48;32.20;47.30
24632;DHT22;59977;48.782;9.190;2023-07-09T19:55:22;32.10;47.70
24632;DHT22;59977;48.782;9.190;2023-07-09T19:57:49;32.00;47.60
24632;DHT22;59977;48.782;9.190;2023-07-09T20:00:16;31.90;47.70
24632;DHT22;59977;48.782;9.190;2023-07-09T20:02:43;31.90;47.60
24632;DHT22;59977;48.782;9.190;2023-07-09T20:05:16;31.80;47.40
24632;DHT22;59977;48.782;9.190;2023-07-09T20:07:43;31.70;47.60
24632;DHT22;59977;48.782;9.190;2023-07-09T20:10:10;31.70;47.80
24632;DHT22;59977;48.782;9.190;2023-07-09T20:12:35;31.60;47.70
24632;DHT22;59977;48.782;9.190;2023-07-09T20:15:17;31.50;48.50
24632;DHT22;59977;48.782;9.190;2023-07-09T20:17:44;31.40;48.70
24632;DHT22;59977;48.782;9.190;2023-07-09T20:20:10;31.40;48.90
24632;DHT22;59977;48.782;9.190;2023-07-09T20:22:36;31.40;49.10
24632;DHT22;59977;48.782;9.190;2023-07-09T20:25:02;31.30;49.20
24632;DHT22;59977;48.782;9.190;2023-07-09T20:27:28;31.30;49.70
24632;DHT22;59977;48.782;9.190;2023-07-09T20:29:53;31.30;50.00
24632;DHT22;59977;48.782;9.190;2023-07-09T20:32:20;31.10;50.60
24632;DHT22;59977;48.782;9.190;2023-07-09T20:34:51;31.00;51.00
24632;DHT22;59977;48.782;9.190;2023-07-09T20:37:17;31.00;50.80
24632;DHT22;59977;48.782;9.190;2023-07-09T20:39:42;30.80;51.30
24632;DHT22;59977;48.782;9.190;2023-07-09T20:42:11;30.80;51.40
24632;DHT22;59977;48.782;9.190;2023-07-09T20:44:38;30.80;51.80
24632;DHT22;59977;48.782;9.190;2023-07-09T20:47:18;30.70;51.30
24632;DHT22;59977;48.782;9.190;2023-07-09T20:49:44;30.70;51.80
24632;DHT22;59977;48.782;9.190;2023-07-09T20:52:10;30.60;51.50
24632;DHT22;59977;48.782;9.190;2023-07-09T20:54:39;30.60;51.00
24632;DHT22;59977;48.782;9.190;2023-07-09T20:57:17;30.40;51.90
24632;DHT22;59977;48.782;9.190;2023-07-09T20:59:43;30.50;52.00
24632;DHT22;59977;48.782;9.190;2023-07-09T21:02:19;30.50;52.00
24632;DHT22;59977;48.782;9.190;2023-07-09T21:04:45;30.50;51.40
24632;DHT22;59977;48.782;9.190;2023-07-09T21:07:11;30.50;51.70
24632;DHT22;59977;48.782;9.190;2023-07-09T21:09:37;30.40;51.60
24632;DHT22;59977;48.782;9.190;2023-07-09T21:12:14;30.40;51.20
24632;DHT22;59977;48.782;9.190;2023-07-09T21:14:41;30.40;51.10
24632;DHT22;59977;48.782;9.190;2023-07-09T21:17:13;30.40;51.60
24632;DHT22;59977;48.782;9.190;2023-07-09T21:19:40;30.40;50.70
24632;DHT22;59977;48.782;9.190;2023-07-09T21:22:11;30.40;50.80
24632;DHT22;59977;48.782;9.190;2023-07-09T21:24:38;30.40;50.90
24632;DHT22;59977;48.782;9.190;2023-07-09T21:27:05;30.40;51.10
24632;DHT22;59977;48.782;9.190;2023-07-09T21:29:31;30.30;51.90
24632;DHT22;59977;48.782;9.190;2023-07-09T21:32:00;30.20;51.90
24632;DHT22;59977;48.782;9.190;2023-07-09T21:34:29;30.20;51.60
24632;DHT22;59977;48.782;9.190;2023-07-09T21:36:58;30.20;52.00
24632;DHT22;59977;48.782;9.190;2023-07-09T21:39:26;30.20;51.80
24632;DHT22;59977;48.782;9.190;2023-07-09T21:41:54;30.20;51.80
24632;DHT22;59977;48.782;9.190;2023-07-09T21:44:23;30.20;51.90
24632;DHT22;59977;48.782;9.190;2023-07-09T21:46:55;30.20;52.10
24632;DHT22;59977;48.782;9.190;2023-07-09T21:49:25;30.20;52.40
24632;DHT22;59977;48.782;9.190;2023-07-09T21:51:51;30.20;52.70
24632;DHT22;59977;48.782;9.190;2023-07-09T21:54:31;30.10;52.50
24632;DHT22;59977;48.782;9.190;2023-07-09T21:56:57;30.10;52.80
24632;DHT22;59977;48.782;9.190;2023-07-09T21:59:24;30.10;53.10
24632;DHT22;59977;48.782;9.190;2023-07-09T22:01:55;30.00;53.20
24632;DHT22;59977;48.782;9.190;2023-07-09T22:04:35;30.00;53.10
24632;DHT22;59977;48.782;9.190;2023-07-09T22:07:17;30.00;53.10
24632;DHT22;59977;48.782;9.190;2023-07-09T22:09:47;29.90;53.20
24632;DHT22;59977;48.782;9.190;2023-07-09T22:12:12;29.90;53.50
24632;DHT22;59977;48.782;9.190;2023-07-09T22:14:52;29.90;53.80
24632;DHT22;59977;48.782;9.190;2023-07-09T22:17:20;29.80;53.50
24632;DHT22;59977;48.782;9.190;2023-07-09T22:19:57;29.80;54.00
24632;DHT22;59977;48.782;9.190;2023-07-09T22:22:24;29.80;53.80
24632;DHT22;59977;48.782;9.190;2023-07-09T22:24:51;29.80;53.80
24632;DHT22;59977;48.782;9.190;2023-07-09T22:27:17;29.70;53.70
24632;DHT22;59977;48.782;9.190;2023-07-09T22:29:43;29.60;54.10
24632;DHT22;59977;48.782;9.190;2023-07-09T22:32:19;29.60;54.20
24632;DHT22;59977;48.782;9.190;2023-07-09T22:34:47;29.60;54.10
24632;DHT22;59977;48.782;9.190;2023-07-09T22:37:17;29.60;54.00
24632;DHT22;59977;48.782;9.190;2023-07-09T22:39:43;29.60;53.60
24632;DHT22;59977;48.782;9.190;2023-07-09T22:42:08;29.60;53.70
24632;DHT22;59977;48.782;9.190;2023-07-09T22:44:35;29.60;53.40
24632;DHT22;59977;48.782;9.190;2023-07-09T22:47:02;29.60;53.50
24632;DHT22;59977;48.782;9.190;2023-07-09T22:49:33;29.50;54.00
24632;DHT22;59977;48.782;9.190;2023-07-09T22:51:59;29.50;54.40
24632;DHT22;59977;48.782;9.190;2023-07-09T22:54:25;29.50;54.40
24632;DHT22;59977;48.782;9.190;2023-07-09T22:56:51;29.40;54.20
24632;DHT22;59977;48.782;9.190;2023-07-09T22:59:17;32.10;56.50
24632;DHT22;59977;48.782;9.190;2023-07-09T23:01:43;29.30;54.50
24632;DHT22;59977;48.782;9.190;2023-07-09T23:04:11;29.20;54.80
24632;DHT22;59977;48.782;9.190;2023-07-09T23:06:39;29.20;54.80
24632;DHT22;59977;48.782;9.190;2023-07-09T23:09:05;29.20;54.80
24632;DHT22;59977;48.782;9.190;2023-07-09T23:11:33;29.20;54.60
24632;DHT22;59977;48.782;9.190;2023-07-09T23:13:59;29.10;54.80
24632;DHT22;59977;48.782;9.190;2023-07-09T23:16:27;29.10;54.70
24632;DHT22;59977;48.782;9.190;2023-07-09T23:19:01;29.00;54.60
24632;DHT22;59977;48.782;9.190;2023-07-09T23:21:29;29.00;54.70
24632;DHT22;59977;48.782;9.190;2023-07-09T23:23:56;29.00;54.70
24632;DHT22;59977;48.782;9.190;2023-07-09T23:26:27;28.90;54.60
24632;DHT22;59977;48.782;9.190;2023-07-09T23:28:53;28.90;54.80
24632;DHT22;59977;48.782;9.190;2023-07-09T23:31:30;28.80;55.10
24632;DHT22;59977;48.782;9.190;2023-07-09T23:33:57;28.80;55.30
24632;DHT22;59977;48.782;9.190;2023-07-09T23:36:24;28.80;55.20
24632;DHT22;59977;48.782;9.190;2023-07-09T23:38:50;28.80;55.30
24632;DHT22;59977;48.782;9.190;2023-07-09T23:41:25;28.60;55.50
24632;DHT22;59977;48.782;9.190;2023-07-09T23:43:53;28.60;55.70
24632;DHT22;59977;48.782;9.190;2023-07-09T23:46:20;28.60;55.90
24632;DHT22;59977;48.782;9.190;2023-07-09T23:48:46;28.60;56.20
24632;DHT22;59977;48.782;9.190;2023-07-09T23:51:13;28.60;55.80
24632;DHT22;59977;48.782;9.190;2023-07-09T23:53:39;28.50;56.00
24632;DHT22;59977;48.782;9.190;2023-07-09T23:56:19;28.60;56.10
24632;DHT22;59977;48.782;9.190;2023-07-09T23:58:46;28.50;56.50
